createdAt,value
2018-11-22T12:16:41.406Z,18.83
2018-11-22T12:19:10.161Z,19.20
2018-11-22T12:21:38.467Z,18.93
2018-11-22T12:24:07.557Z,17.90
2018-11-22T12:26:36.584Z,20.27
2018-11-22T12:29:05.014Z,19.17
2018-11-22T12:31:33.766Z,18.30
2018-11-22T12:34:07.253Z,18.07
2018-11-22T12:36:40.667Z,19.37
2018-11-22T12:39:13.329Z,19.03
2018-11-22T12:41:42.423Z,18.53
2018-11-22T12:44:11.351Z,17.87
2018-11-22T12:46:40.370Z,18.13
2018-11-22T12:49:09.464Z,20.17
2018-11-22T12:51:37.688Z,20.07
2018-11-22T12:54:06.423Z,19.80
2018-11-22T12:56:35.019Z,18.90
2018-11-22T12:59:03.397Z,17.93
2018-11-22T13:01:32.151Z,17.83
2018-11-22T13:04:00.391Z,20.87
2018-11-22T13:06:28.807Z,19.50
2018-11-22T13:08:56.973Z,19.17
2018-11-22T13:11:25.506Z,19.40
2018-11-22T13:13:53.848Z,20.13
2018-11-22T13:16:22.223Z,18.80
2018-11-22T13:18:51.271Z,20.30
2018-11-22T13:21:19.715Z,19.57
2018-11-22T13:23:49.737Z,17.87
2018-11-22T13:26:18.395Z,18.40
2018-11-22T13:28:46.871Z,20.30
2018-11-22T13:31:15.295Z,21.87
2018-11-22T13:33:43.560Z,19.77
2018-11-22T13:36:11.903Z,20.87
2018-11-22T13:38:40.181Z,19.90
2018-11-22T13:41:08.555Z,20.90
2018-11-22T13:43:37.136Z,22.83
2018-11-22T13:46:06.908Z,21.00
2018-11-22T13:48:35.879Z,23.73
2018-11-22T13:51:04.492Z,22.70
2018-11-22T13:53:33.060Z,24.57
2018-11-22T13:56:01.470Z,23.00
2018-11-22T13:58:31.231Z,22.77
2018-11-22T14:00:59.521Z,23.43
2018-11-22T14:03:28.344Z,22.83
2018-11-22T14:05:56.459Z,22.77
2018-11-22T14:08:24.591Z,22.50
2018-11-22T14:10:58.290Z,23.47
2018-11-22T14:13:21.211Z,24.20
2018-11-22T14:15:49.611Z,21.67
2018-11-22T14:18:18.125Z,20.40
2018-11-22T14:20:46.438Z,23.97
2018-11-22T14:23:14.896Z,23.37
2018-11-22T14:25:49.057Z,24.70
2018-11-22T14:28:11.576Z,22.70
2018-11-22T14:30:39.799Z,22.20
2018-11-22T14:33:08.228Z,23.20
2018-11-22T14:35:36.283Z,21.57
2018-11-22T14:38:04.853Z,22.23
2018-11-22T14:40:33.418Z,22.90
2018-11-22T14:43:01.584Z,23.00
2018-11-22T14:45:30.561Z,21.13
2018-11-22T14:47:59.981Z,23.30
2018-11-22T14:50:32.282Z,23.80
2018-11-22T14:53:03.517Z,24.43
2018-11-22T14:55:32.242Z,22.60
2018-11-22T14:58:00.601Z,24.03
2018-11-22T15:00:28.847Z,24.83
2018-11-22T15:02:57.024Z,24.57
2018-11-22T15:05:25.934Z,21.53
2018-11-22T15:08:00.610Z,23.90
2018-11-22T15:10:29.073Z,25.03
2018-11-22T15:12:57.437Z,24.07
2018-11-22T15:15:26.958Z,23.97
2018-11-22T15:17:55.289Z,26.47
2018-11-22T15:20:23.456Z,25.77
2018-11-22T15:22:52.486Z,25.43
2018-11-22T15:25:23.124Z,24.37
2018-11-22T15:27:52.466Z,23.23
2018-11-22T15:30:23.422Z,22.30
2018-11-22T15:32:51.677Z,24.33
2018-11-22T15:35:21.449Z,24.23
2018-11-22T15:37:50.072Z,23.27
2018-11-22T15:40:20.467Z,24.10
2018-11-22T15:42:51.302Z,24.83
2018-11-22T15:45:21.017Z,26.20
2018-11-22T15:47:50.164Z,26.37
2018-11-22T15:50:19.735Z,25.57
2018-11-22T15:52:48.048Z,27.00
2018-11-22T15:55:21.052Z,26.00
2018-11-22T15:57:46.678Z,28.93
2018-11-22T16:00:22.813Z,25.03
2018-11-22T16:02:51.804Z,25.00
2018-11-22T16:05:21.017Z,27.17
2018-11-22T16:07:49.525Z,24.37
2018-11-22T16:10:26.376Z,28.57
2018-11-22T16:12:50.386Z,28.50
2018-11-22T16:15:20.623Z,26.50
2018-11-22T16:17:54.980Z,25.83
2018-11-22T16:20:23.727Z,23.07
2018-11-22T16:22:51.927Z,24.60
2018-11-22T16:25:20.331Z,26.60
2018-11-22T16:27:48.837Z,24.57
2018-11-22T16:30:19.117Z,26.63
2018-11-22T16:32:47.352Z,23.63
2018-11-22T16:35:16.437Z,24.90
2018-11-22T16:37:45.088Z,24.50
2018-11-22T16:40:15.649Z,22.00
2018-11-22T16:42:44.879Z,23.63
2018-11-22T16:45:20.681Z,25.60
2018-11-22T16:47:48.972Z,26.83
2018-11-22T16:50:18.510Z,25.63
2018-11-22T16:52:47.137Z,27.77
2018-11-22T16:55:15.775Z,25.87
2018-11-22T16:57:45.184Z,26.30
2018-11-22T17:00:15.555Z,28.30
2018-11-22T17:02:44.029Z,27.83
2018-11-22T17:05:12.492Z,25.90
2018-11-22T17:07:40.780Z,30.10
2018-11-22T17:10:11.565Z,28.83
2018-11-22T17:12:39.825Z,24.40
2018-11-22T17:15:09.181Z,28.27
2018-11-22T17:17:37.582Z,30.63
2018-11-22T17:20:06.548Z,29.97
2018-11-22T17:22:35.236Z,24.77
2018-11-22T17:25:05.420Z,31.90
2018-11-22T17:27:33.656Z,39.67
2018-11-22T17:30:02.226Z,29.33
2018-11-22T17:32:30.499Z,29.27
2018-11-22T17:34:58.659Z,26.47
2018-11-22T17:37:26.800Z,29.30
2018-11-22T17:39:55.118Z,28.67
2018-11-22T17:42:23.335Z,25.93
2018-11-22T17:44:51.637Z,26.77
2018-11-22T17:47:19.876Z,27.47
2018-11-22T17:49:50.040Z,33.50
2018-11-22T17:52:20.295Z,30.60
2018-11-22T17:54:48.535Z,25.73
2018-11-22T17:57:16.815Z,29.13
2018-11-22T17:59:45.306Z,29.90
2018-11-22T18:02:13.572Z,29.27
2018-11-22T18:04:43.064Z,28.87
2018-11-22T18:07:10.327Z,28.53
2018-11-22T18:09:38.506Z,27.00
2018-11-22T18:12:07.091Z,27.93
2018-11-22T18:14:37.436Z,23.10
2018-11-22T18:17:05.943Z,27.07
2018-11-22T18:19:36.371Z,26.37
2018-11-22T18:22:04.691Z,25.50
2018-11-22T18:24:33.859Z,28.50
2018-11-22T18:27:01.985Z,29.33
2018-11-22T18:29:30.144Z,28.70
2018-11-22T18:31:58.845Z,28.97
2018-11-22T18:34:27.968Z,28.43
2018-11-22T18:36:56.198Z,28.70
2018-11-22T18:39:24.379Z,30.23
2018-11-22T18:41:52.920Z,28.80
2018-11-22T18:44:21.379Z,22.90
2018-11-22T18:46:49.555Z,23.80
2018-11-22T18:49:17.694Z,29.40
2018-11-22T18:51:46.913Z,29.43
2018-11-22T18:54:16.032Z,30.00
2018-11-22T18:56:44.302Z,31.20
2018-11-22T18:59:12.517Z,29.10
2018-11-22T19:01:44.879Z,29.80
2018-11-22T19:04:08.793Z,32.57
2018-11-22T19:06:36.970Z,30.70
2018-11-22T19:09:06.784Z,31.17
2018-11-22T19:11:35.108Z,35.67
2018-11-22T19:14:03.225Z,30.27
2018-11-22T19:16:31.279Z,31.00
2018-11-22T19:18:59.398Z,33.50
2018-11-22T19:21:27.655Z,27.30
2018-11-22T19:23:55.987Z,32.67
2018-11-22T19:26:24.113Z,32.77
2018-11-22T19:28:52.172Z,30.87
2018-11-22T19:31:20.226Z,30.47
2018-11-22T19:33:48.312Z,35.00
2018-11-22T19:36:16.420Z,34.73
2018-11-22T19:38:44.618Z,35.77
2018-11-22T19:41:19.136Z,34.83
2018-11-22T19:43:47.643Z,35.60
2018-11-22T19:46:15.649Z,30.27
2018-11-22T19:48:43.707Z,32.10
2018-11-22T19:51:11.718Z,31.37
2018-11-22T19:53:39.923Z,32.57
2018-11-22T19:56:07.948Z,33.90
2018-11-22T19:58:36.019Z,33.53
2018-11-22T20:01:07.690Z,28.90
2018-11-22T20:03:32.473Z,30.70
2018-11-22T20:06:00.530Z,31.50
2018-11-22T20:08:28.563Z,33.60
2018-11-22T20:10:56.703Z,33.00
2018-11-22T20:13:24.722Z,32.97
2018-11-22T20:15:52.846Z,33.80
2018-11-22T20:18:20.835Z,35.63
2018-11-22T20:20:49.910Z,34.57
2018-11-22T20:23:21.507Z,36.07
2018-11-22T20:25:45.107Z,31.17
2018-11-22T20:28:13.283Z,31.60
2018-11-22T20:30:42.821Z,31.60
2018-11-22T20:33:10.882Z,32.60
2018-11-22T20:35:38.923Z,31.37
2018-11-22T20:38:07.073Z,34.67
2018-11-22T20:40:35.023Z,32.07
2018-11-22T20:43:03.071Z,32.07
2018-11-22T20:45:31.862Z,31.67
2018-11-22T20:48:02.206Z,33.67
2018-11-22T20:50:30.781Z,33.33
2018-11-22T20:52:58.834Z,35.47
2018-11-22T20:55:28.246Z,32.17
2018-11-22T20:57:57.511Z,37.67
2018-11-22T21:00:26.906Z,32.40
2018-11-22T21:02:54.877Z,31.53
2018-11-22T21:05:23.553Z,30.60
2018-11-22T21:07:51.577Z,30.30
2018-11-22T21:10:21.805Z,30.60
2018-11-22T21:12:50.939Z,38.80
2018-11-22T21:15:21.419Z,37.20
2018-11-22T21:17:50.408Z,36.30
2018-11-22T21:20:19.798Z,35.83
2018-11-22T21:22:47.826Z,34.80
2018-11-22T21:25:17.162Z,34.90
2018-11-22T21:27:45.163Z,32.23
2018-11-22T21:30:17.717Z,35.53
2018-11-22T21:32:46.642Z,36.73
2018-11-22T21:35:15.000Z,35.50
2018-11-22T21:37:43.526Z,34.67
2018-11-22T21:40:12.121Z,34.93
2018-11-22T21:42:40.126Z,35.53
2018-11-22T21:45:09.526Z,34.47
2018-11-22T21:47:37.751Z,39.10
2018-11-22T21:50:07.526Z,34.47
2018-11-22T21:52:35.842Z,34.90
2018-11-22T21:55:05.584Z,33.40
2018-11-22T21:57:33.615Z,33.20
2018-11-22T22:00:01.587Z,33.30
2018-11-22T22:02:29.643Z,34.70
2018-11-22T22:04:57.622Z,33.17
2018-11-22T22:07:25.618Z,43.33
2018-11-22T22:09:54.079Z,31.10
2018-11-22T22:12:22.070Z,31.10
2018-11-22T22:14:50.103Z,31.30
2018-11-22T22:17:18.055Z,31.60
2018-11-22T22:19:46.018Z,34.80
2018-11-22T22:22:14.006Z,31.13
2018-11-22T22:24:42.067Z,32.40
2018-11-22T22:27:10.063Z,36.70
2018-11-22T22:29:38.100Z,37.27
2018-11-22T22:32:06.106Z,33.70
2018-11-22T22:34:34.143Z,32.03
2018-11-22T22:37:02.196Z,33.90
2018-11-22T22:39:30.159Z,32.73
2018-11-22T22:41:58.152Z,32.93
2018-11-22T22:44:26.161Z,32.77
2018-11-22T22:46:54.266Z,33.77
2018-11-22T22:49:22.337Z,34.13
2018-11-22T22:51:50.515Z,36.50
2018-11-22T22:54:18.507Z,34.73
2018-11-22T22:56:46.499Z,36.77
2018-11-22T22:59:14.491Z,36.27
2018-11-22T23:01:42.537Z,33.93
2018-11-22T23:04:10.629Z,34.13
2018-11-22T23:06:39.278Z,32.97
2018-11-22T23:09:09.293Z,33.77
2018-11-22T23:11:37.286Z,32.83
2018-11-22T23:14:05.545Z,31.80
2018-11-22T23:16:33.498Z,28.63
2018-11-22T23:19:01.466Z,28.90
2018-11-22T23:21:29.541Z,29.10
2018-11-22T23:23:57.563Z,27.83
2018-11-22T23:26:25.498Z,30.93
2018-11-22T23:28:53.468Z,30.60
2018-11-22T23:31:21.742Z,31.70
2018-11-22T23:33:49.753Z,36.80
2018-11-22T23:36:18.023Z,35.53
2018-11-22T23:38:46.002Z,35.27
2018-11-22T23:41:14.635Z,33.23
2018-11-22T23:43:42.683Z,32.70
2018-11-22T23:46:10.683Z,33.67
2018-11-22T23:48:38.662Z,33.43
2018-11-22T23:51:06.671Z,31.03
2018-11-22T23:53:34.662Z,34.97
2018-11-22T23:56:02.753Z,38.93
2018-11-22T23:58:30.710Z,31.67
